Newport State Airport

About

Name: Newport State Airport
Identifier:  NPT/KUUU
Local Time:  26. Jan 10:11 EST

Location

Newport State Airport

Statistics

Flights Per Day:
0 Flights
Distance: 2,553km (1,586mi)
Flights Delayed:
50% (0 Flights/Day Delayed)
Average Delay: 67 minutes

Current Weather

 7 C (Humidity: 65%)
  9kt (16km/h / 10mph) from 280°
  16km (10 mi.)
 METAR KUUU 261453Z AUTO 28009KT 10SM CLR 07/01 A2974 RMK AO2 SLP069 T00670006 50006

Claim Compensation

Claim compensation for your flight delay or cancellation
Flight delays happen, but that doesn’t mean you have to accept them. You may be entitled to as much as €600/$700 in compensation if your flight has been delayed, canceled or overbooked within the last three years.

Current Delays

Departures

N/A

Arrivals

N/A

Destinations

Map

Top Destinations

Airport Flights
per week
Seats
per week
  Rome (RMG) 0 - 0 0
  Lagos De Moreno (LOM) 0 - 0 0

Airlines & Planes

Top Airlines

Airline Flights
per day
Seats
per day
  Centennial Airlines 0 -

Top Models

model Flights seats
Pilatus PC-12 0.1/day - 0